Amistead, Mississippi
Current Conditions -  °F | °C
As of 6:15 PM on Saturday 25 Oct 2014 (Local Time) from KCKM Reporting Station
Clear Clear  
Wind Chill: 77°   Ceiling: Unl
Heat Index: 79°   Visibility: 10mi
Dew Point: 64°   Wind: 5mph
Humidity: 65%   Direction: 220°SW
Pressure: 30.04"   Gusts: NA
Location:  34.3648°N, 90.6363°W
Report Text: KCKM 252315Z AUTO 22004KT 10SM CLR 25/18 A3004 RMK AO1
Loading
Personal Weather Stations






























Interactive Weather Map
Tropical Storm Tracking
New forecast layout! Learn more

10-Day Weather Forecast

Advertisements
Track Severe Weather on mobile